Time;durP1;ratioP1;P1;durP2;ratioP2;P2;SDS_P1;SDS_P2;PMS_P1;PMS_P2;Temp;Humidity;BMP_temperature;BMP_pressure;BME280_temperature;BME280_humidity;BME280_pressure;Samples;Min_cycle;Max_cycle;Signal;HPM_P1;HPM_P2
2022/05/11 00:00:42;;;;;;;9.82;3.83;;;13.20;99.90;;;;;;6212736;23;20025;-84
2022/05/11 00:03:08;;;;;;;9.88;3.67;;;13.20;99.90;;;;;;6215008;23;20357;-84
2022/05/11 00:05:35;;;;;;;10.52;3.60;;;13.20;99.90;;;;;;6211850;23;20013;-84
2022/05/11 00:08:01;;;;;;;10.27;3.70;;;13.20;99.90;;;;;;6214528;23;20465;-84
2022/05/11 00:10:26;;;;;;;9.75;3.70;;;13.20;99.90;;;;;;6216874;23;20341;-84
2022/05/11 00:12:52;;;;;;;9.38;3.40;;;13.10;99.90;;;;;;6215386;23;20044;-84
2022/05/11 00:15:24;;;;;;;10.35;3.55;;;13.10;99.90;;;;;;6215084;23;20013;-84
2022/05/11 00:17:50;;;;;;;9.85;3.55;;;13.10;99.90;;;;;;6216600;23;20012;-84
2022/05/11 00:20:17;;;;;;;9.93;3.40;;;13.10;99.90;;;;;;6215644;23;20472;-84
2022/05/11 00:22:43;;;;;;;7.93;3.17;;;13.10;99.90;;;;;;6216100;23;20025;-84
2022/05/11 00:25:12;;;;;;;11.40;3.40;;;13.20;99.90;;;;;;6214660;23;20441;-84
2022/05/11 00:27:38;;;;;;;8.05;3.08;;;13.10;99.90;;;;;;6215401;23;20464;-83
2022/05/11 00:30:05;;;;;;;9.80;3.33;;;13.10;99.90;;;;;;6214442;23;20013;-84
2022/05/11 00:32:31;;;;;;;9.90;3.63;;;13.10;99.90;;;;;;6215170;23;20031;-84
2022/05/11 00:34:57;;;;;;;10.02;3.58;;;13.10;99.90;;;;;;6214250;23;20017;-84
2022/05/11 00:37:24;;;;;;;10.40;3.65;;;13.00;99.90;;;;;;6216266;23;20027;-84
2022/05/11 00:39:49;;;;;;;11.85;3.60;;;13.00;99.90;;;;;;6213210;23;20013;-84
2022/05/11 00:42:15;;;;;;;10.10;3.60;;;13.10;99.90;;;;;;6216336;23;20403;-84
2022/05/11 00:44:42;;;;;;;10.45;3.85;;;13.10;99.90;;;;;;6215301;23;20479;-84
2022/05/11 00:47:18;;;;;;;10.30;3.83;;;13.10;99.90;;;;;;6215166;23;20087;-84
2022/05/11 00:49:53;;;;;;;10.77;3.72;;;13.10;99.90;;;;;;6215698;23;20020;-84
2022/05/11 00:52:41;;;;;;;9.75;4.07;;;13.10;99.90;;;;;;6189088;23;20449;-84
2022/05/11 00:55:30;;;;;;;11.05;3.70;;;13.10;99.90;;;;;;6188028;23;20024;-84
2022/05/11 00:58:02;;;;;;;13.52;3.78;;;13.10;99.90;;;;;;6188789;23;20017;-84
2022/05/11 01:00:28;;;;;;;9.48;3.67;;;13.10;99.90;;;;;;6214947;23;20021;-84
2022/05/11 01:03:02;;;;;;;10.90;3.90;;;13.10;99.90;;;;;;6214928;23;20437;-84
2022/05/11 01:05:27;;;;;;;11.55;4.00;;;13.10;99.90;;;;;;6189420;23;20020;-84
2022/05/11 01:07:55;;;;;;;9.18;3.63;;;13.20;99.90;;;;;;6214806;23;20015;-84
2022/05/11 01:10:23;;;;;;;11.48;4.25;;;13.20;99.90;;;;;;6215984;23;20021;-84
2022/05/11 01:12:54;;;;;;;9.93;3.20;;;13.20;99.90;;;;;;6215767;23;20013;-84
2022/05/11 01:15:21;;;;;;;10.95;4.03;;;13.20;99.90;;;;;;6215208;23;20055;-84
2022/05/11 01:17:47;;;;;;;10.30;3.67;;;13.30;99.90;;;;;;6188816;23;20392;-84
2022/05/11 01:20:23;;;;;;;9.80;4.00;;;13.30;99.90;;;;;;6215573;23;20044;-84
2022/05/11 01:23:14;;;;;;;8.95;3.90;;;13.30;99.90;;;;;;6187672;23;20106;-84
2022/05/11 01:25:39;;;;;;;11.45;3.63;;;13.30;99.90;;;;;;6215782;23;20017;-84
2022/05/11 01:28:11;;;;;;;11.88;4.00;;;13.30;99.90;;;;;;6215657;23;20508;-84
2022/05/11 01:30:37;;;;;;;11.55;3.97;;;13.30;99.90;;;;;;6215219;23;20048;-84
2022/05/11 01:33:03;;;;;;;9.70;3.97;;;13.30;99.90;;;;;;6215226;23;20390;-84
2022/05/11 01:35:47;;;;;;;10.90;4.30;;;13.40;99.90;;;;;;6189363;23;20013;-84
2022/05/11 01:38:16;;;;;;;12.32;4.32;;;13.40;99.90;;;;;;6188814;23;20368;-84
2022/05/11 01:40:41;;;;;;;11.93;4.75;;;13.40;99.90;;;;;;6215422;23;20012;-83
2022/05/11 01:43:13;;;;;;;13.05;4.50;;;13.40;99.90;;;;;;6190956;23;20023;-84
2022/05/11 01:45:38;;;;;;;14.45;4.65;;;13.40;99.90;;;;;;6189341;23;20013;-84
2022/05/11 01:48:04;;;;;;;11.93;4.30;;;13.40;99.90;;;;;;6189088;23;20027;-84
2022/05/11 01:50:30;;;;;;;12.52;4.75;;;13.50;99.90;;;;;;6215059;23;20092;-84
2022/05/11 01:52:55;;;;;;;11.73;4.18;;;13.50;99.90;;;;;;6217469;23;20012;-84
2022/05/11 01:55:21;;;;;;;11.48;4.40;;;13.50;99.90;;;;;;6189190;23;20388;-84
2022/05/11 01:57:46;;;;;;;10.75;4.50;;;13.50;99.90;;;;;;6187226;23;20346;-84
2022/05/11 02:00:12;;;;;;;10.85;4.57;;;13.50;99.90;;;;;;6215578;23;20024;-83
2022/05/11 02:02:38;;;;;;;11.63;4.88;;;13.60;99.90;;;;;;6214923;23;20013;-84
2022/05/11 02:07:50;;;;;;;13.43;4.97;;;13.60;99.90;;;;;;6214846;23;20024;-84
2022/05/11 02:10:16;;;;;;;10.90;4.80;;;13.70;99.90;;;;;;6215454;23;20019;-84
2022/05/11 02:12:42;;;;;;;12.70;4.95;;;13.70;99.90;;;;;;6214305;23;20017;-84
2022/05/11 02:15:08;;;;;;;13.18;5.03;;;13.70;99.90;;;;;;6214529;23;20024;-84
2022/05/11 02:17:34;;;;;;;11.57;4.70;;;13.70;99.90;;;;;;6215318;23;20329;-84
2022/05/11 02:20:00;;;;;;;11.73;4.60;;;13.70;99.90;;;;;;6214465;23;20025;-84
2022/05/11 02:22:25;;;;;;;10.65;4.43;;;13.70;99.90;;;;;;6215664;23;20017;-84
2022/05/11 02:24:51;;;;;;;12.98;4.78;;;13.70;99.90;;;;;;6214264;23;20013;-84
2022/05/11 02:27:17;;;;;;;9.80;4.20;;;13.70;99.90;;;;;;6215160;23;20311;-84
2022/05/11 02:29:42;;;;;;;10.07;4.63;;;13.70;99.90;;;;;;6188508;23;20021;-84
2022/05/11 02:32:08;;;;;;;12.98;4.78;;;13.70;99.90;;;;;;6213977;23;20013;-84
2022/05/11 02:37:18;;;;;;;13.25;4.40;;;13.80;99.90;;;;;;6215749;23;20099;-84
2022/05/11 02:39:44;;;;;;;12.90;4.43;;;13.80;99.90;;;;;;6187201;23;20051;-85
2022/05/11 02:42:09;;;;;;;10.35;4.15;;;13.80;99.90;;;;;;6188576;23;20035;-84
2022/05/11 02:44:35;;;;;;;11.75;3.83;;;13.70;99.90;;;;;;6215379;23;20329;-84
2022/05/11 02:47:01;;;;;;;11.18;3.88;;;13.80;99.90;;;;;;6187425;23;20024;-84
2022/05/11 02:49:26;;;;;;;8.75;3.83;;;13.80;99.90;;;;;;6215528;23;20023;-84
2022/05/11 02:51:52;;;;;;;11.40;4.18;;;13.80;99.90;;;;;;6188070;23;20012;-84
2022/05/11 02:54:18;;;;;;;9.00;3.80;;;13.80;99.90;;;;;;6187485;23;20398;-84
2022/05/11 02:56:43;;;;;;;11.27;3.60;;;13.80;99.90;;;;;;6214342;23;20027;-84
2022/05/11 02:59:09;;;;;;;9.57;3.75;;;13.80;99.90;;;;;;6219815;23;20012;-84
2022/05/11 03:01:35;;;;;;;11.10;4.13;;;13.80;99.90;;;;;;6214396;23;20491;-84
2022/05/11 03:04:01;;;;;;;14.15;3.88;;;13.80;99.90;;;;;;6214787;23;20024;-84
2022/05/11 03:06:26;;;;;;;10.77;3.83;;;13.80;99.90;;;;;;6188506;23;20017;-84
2022/05/11 03:08:52;;;;;;;9.90;3.67;;;13.80;99.90;;;;;;6213794;23;20048;-84
2022/05/11 03:11:17;;;;;;;10.60;3.85;;;13.80;99.90;;;;;;6215175;23;20013;-84
2022/05/11 03:13:43;;;;;;;12.02;3.53;;;13.80;99.90;;;;;;6215571;23;20048;-84
2022/05/11 03:16:09;;;;;;;10.40;3.42;;;13.80;99.90;;;;;;6215925;23;20016;-84
2022/05/11 03:18:34;;;;;;;11.35;3.85;;;13.90;99.90;;;;;;6215426;23;20016;-84
2022/05/11 03:21:00;;;;;;;9.02;3.30;;;13.80;99.90;;;;;;6214417;23;20052;-84
2022/05/11 03:23:27;;;;;;;10.65;3.53;;;13.90;99.90;;;;;;6214148;23;20017;-84
2022/05/11 03:25:53;;;;;;;10.23;3.80;;;13.80;99.90;;;;;;6214528;23;20469;-84
2022/05/11 03:28:19;;;;;;;10.30;3.70;;;13.80;99.90;;;;;;6187425;23;20027;-84
2022/05/11 03:30:45;;;;;;;9.90;3.65;;;13.90;99.90;;;;;;6214859;23;20040;-84
2022/05/11 03:35:56;;;;;;;11.20;3.78;;;13.80;99.90;;;;;;6216995;23;20020;-84
2022/05/11 03:38:22;;;;;;;10.32;3.78;;;13.80;99.90;;;;;;6215006;23;20329;-84
2022/05/11 03:40:47;;;;;;;10.80;4.35;;;13.80;99.90;;;;;;6214762;23;20124;-84
2022/05/11 03:43:13;;;;;;;12.02;4.55;;;13.80;99.90;;;;;;6188460;23;20332;-84
2022/05/11 03:45:38;;;;;;;12.50;3.88;;;13.80;99.90;;;;;;6193542;23;20016;-84
2022/05/11 03:48:04;;;;;;;10.15;3.75;;;13.80;99.90;;;;;;6217312;23;20325;-84
2022/05/11 03:50:31;;;;;;;11.48;4.00;;;13.80;99.90;;;;;;6216656;23;20025;-84
2022/05/11 03:52:58;;;;;;;9.68;3.72;;;13.80;99.90;;;;;;6217129;23;20110;-84
2022/05/11 03:55:25;;;;;;;11.65;3.90;;;13.80;99.90;;;;;;6189890;23;20449;-84
2022/05/11 03:57:51;;;;;;;10.18;4.10;;;13.80;99.90;;;;;;6215370;23;20025;-84
2022/05/11 04:00:22;;;;;;;11.07;4.00;;;13.80;99.90;;;;;;6190045;23;20104;-84
2022/05/11 04:02:49;;;;;;;12.27;4.13;;;13.80;99.90;;;;;;6215907;23;20016;-84
2022/05/11 04:05:16;;;;;;;10.43;3.83;;;13.80;99.90;;;;;;6215290;23;20075;-84
2022/05/11 04:07:42;;;;;;;13.50;3.80;;;13.80;99.90;;;;;;6216000;23;20011;-84
2022/05/11 04:10:09;;;;;;;11.48;3.95;;;13.80;99.90;;;;;;6216393;23;20020;-84
2022/05/11 04:12:35;;;;;;;11.93;4.13;;;13.70;99.90;;;;;;6189119;23;20023;-84
2022/05/11 04:15:01;;;;;;;15.13;4.18;;;13.70;99.90;;;;;;6189483;23;20024;-84
2022/05/11 04:17:27;;;;;;;12.88;3.80;;;13.70;99.90;;;;;;6216036;23;20123;-83
2022/05/11 04:19:52;;;;;;;11.25;3.83;;;13.80;99.90;;;;;;6214476;23;20390;-84
2022/05/11 04:22:18;;;;;;;12.48;4.05;;;13.80;99.90;;;;;;6216518;23;20449;-84
2022/05/11 04:24:44;;;;;;;11.48;4.50;;;13.80;99.90;;;;;;6214737;23;20071;-84
2022/05/11 04:27:10;;;;;;;11.68;4.28;;;13.80;99.90;;;;;;6216830;23;20083;-84
2022/05/11 04:29:36;;;;;;;12.63;4.47;;;13.80;99.90;;;;;;6217027;23;20024;-84
2022/05/11 04:32:02;;;;;;;10.13;4.03;;;13.80;99.90;;;;;;6213667;23;20012;-83
2022/05/11 04:34:28;;;;;;;11.65;4.07;;;13.80;99.90;;;;;;6216201;23;20097;-84
2022/05/11 04:36:53;;;;;;;12.35;4.80;;;13.80;99.90;;;;;;6216416;23;20044;-84
2022/05/11 04:39:19;;;;;;;10.45;4.40;;;13.80;99.90;;;;;;6188655;23;20437;-84
2022/05/11 04:41:45;;;;;;;9.32;4.32;;;13.90;99.90;;;;;;6216130;23;20028;-84
2022/05/11 04:44:11;;;;;;;10.60;4.40;;;13.90;99.90;;;;;;6216672;23;20020;-84
2022/05/11 04:46:37;;;;;;;11.68;4.50;;;13.90;99.90;;;;;;6213931;23;20452;-83
2022/05/11 04:49:23;;;;;;;11.60;4.80;;;13.90;99.90;;;;;;6216251;23;20025;-84
2022/05/11 04:52:01;;;;;;;12.27;4.72;;;13.90;99.90;;;;;;6216338;23;20021;-84
2022/05/11 04:54:27;;;;;;;13.60;5.50;;;14.00;99.90;;;;;;6214622;23;20460;-84
2022/05/11 04:56:52;;;;;;;12.18;4.70;;;13.90;99.90;;;;;;6215788;23;20044;-84
2022/05/11 04:59:18;;;;;;;13.18;5.78;;;14.00;99.90;;;;;;6214817;23;20314;-84
2022/05/11 05:01:45;;;;;;;12.82;5.93;;;14.00;99.90;;;;;;6213524;23;20048;-84
2022/05/11 05:04:12;;;;;;;16.35;6.60;;;14.10;99.90;;;;;;6216483;23;20021;-83
2022/05/11 05:06:38;;;;;;;18.05;7.75;;;14.20;99.90;;;;;;6215463;23;20020;-83
2022/05/11 05:09:05;;;;;;;18.02;8.18;;;14.20;99.90;;;;;;6214381;23;20510;-84
2022/05/11 05:11:32;;;;;;;14.80;7.18;;;14.30;99.90;;;;;;6215992;23;20016;-84
2022/05/11 05:13:58;;;;;;;13.05;7.50;;;14.30;99.90;;;;;;6187887;23;20041;-84
2022/05/11 05:16:23;;;;;;;15.75;6.78;;;14.30;99.90;;;;;;6189229;23;20016;-84
2022/05/11 05:18:50;;;;;;;14.13;7.40;;;14.30;99.90;;;;;;6215997;23;20020;-84
2022/05/11 05:21:16;;;;;;;14.45;7.35;;;14.30;99.90;;;;;;6215084;23;20487;-84
2022/05/11 05:23:42;;;;;;;13.70;6.78;;;14.50;99.90;;;;;;6188644;23;20087;-84
2022/05/11 05:26:07;;;;;;;17.38;7.30;;;14.50;99.90;;;;;;6216059;23;20044;-84
2022/05/11 05:31:21;;;;;;;;;;;14.70;99.90;;;;;;6216507;23;20020;-83
2022/05/11 05:33:46;;;;;;;14.50;6.82;;;14.70;99.90;;;;;;6188761;23;19923;-84
2022/05/11 05:36:12;;;;;;;15.30;6.80;;;14.70;99.90;;;;;;6215303;23;20016;-84
2022/05/11 05:38:38;;;;;;;15.27;6.75;;;14.80;99.90;;;;;;6215481;23;20511;-84
2022/05/11 05:41:09;;;;;;;15.85;7.07;;;14.80;99.90;;;;;;6214061;23;20341;-83
2022/05/11 05:43:36;;;;;;;12.65;6.47;;;14.80;99.90;;;;;;6214928;23;20021;-83
2022/05/11 05:46:02;;;;;;;14.38;6.75;;;14.80;99.90;;;;;;6188705;23;20016;-85
2022/05/11 05:48:28;;;;;;;15.32;6.95;;;14.90;99.90;;;;;;6216005;23;20024;-89
2022/05/11 05:51:02;;;;;;;14.13;7.18;;;14.90;99.90;;;;;;6188280;23;20079;-90
2022/05/11 05:53:27;;;;;;;16.58;7.43;;;15.00;99.90;;;;;;6193947;23;20100;-88
2022/05/11 05:55:53;;;;;;;17.67;8.10;;;15.00;99.90;;;;;;6215313;23;20099;-86
2022/05/11 05:58:18;;;;;;;18.38;8.20;;;15.00;99.90;;;;;;6216057;23;20013;-86
2022/05/11 06:00:45;;;;;;;17.92;7.53;;;15.10;99.90;;;;;;6188335;23;20025;-86
2022/05/11 06:03:14;;;;;;;15.40;7.43;;;15.10;99.90;;;;;;6187793;23;20406;-86
2022/05/11 06:05:40;;;;;;;14.70;7.28;;;15.10;99.90;;;;;;6188217;23;20023;-86
2022/05/11 06:08:08;;;;;;;15.73;6.20;;;15.20;99.90;;;;;;6215237;23;20021;-87
2022/05/11 06:10:39;;;;;;;13.90;5.72;;;15.30;99.90;;;;;;6214411;23;20013;-86
2022/05/11 06:13:05;;;;;;;12.18;5.85;;;15.30;99.90;;;;;;6215611;23;20083;-87
2022/05/11 06:15:32;;;;;;;14.00;5.60;;;15.30;99.90;;;;;;6188575;23;20032;-85
2022/05/11 06:17:57;;;;;;;11.77;5.00;;;15.40;99.90;;;;;;6187071;23;20008;-85
2022/05/11 06:20:23;;;;;;;11.57;5.20;;;15.50;99.90;;;;;;6190485;23;20027;-86
2022/05/11 06:22:50;;;;;;;15.02;5.68;;;15.50;99.90;;;;;;6187981;23;20013;-84
2022/05/11 06:25:18;;;;;;;12.07;5.00;;;15.60;99.90;;;;;;6187041;23;20096;-89
2022/05/11 06:27:44;;;;;;;12.00;4.82;;;15.60;99.90;;;;;;6215054;23;20020;-88
2022/05/11 06:30:10;;;;;;;10.52;4.50;;;15.70;99.90;;;;;;6189179;23;20025;-90
2022/05/11 06:32:36;;;;;;;13.52;4.93;;;15.70;99.90;;;;;;6215006;23;20019;-91
2022/05/11 06:35:02;;;;;;;11.65;4.68;;;15.80;99.90;;;;;;6188040;23;20103;-92
2022/05/11 06:37:28;;;;;;;12.18;4.45;;;15.80;99.90;;;;;;6188974;23;20008;-89
2022/05/11 06:39:54;;;;;;;12.82;4.65;;;15.90;99.90;;;;;;6186959;23;20017;-88
2022/05/11 06:42:20;;;;;;;12.98;4.43;;;16.00;99.90;;;;;;6215337;23;20155;-87
2022/05/11 06:44:46;;;;;;;13.18;4.28;;;16.00;99.90;;;;;;6188339;23;20020;-87
2022/05/11 06:47:12;;;;;;;10.85;4.03;;;16.00;99.90;;;;;;6188063;23;20449;-87
2022/05/11 06:49:37;;;;;;;10.05;3.90;;;16.10;99.90;;;;;;6215222;23;20024;-88
2022/05/11 06:52:04;;;;;;;12.60;3.53;;;16.10;99.90;;;;;;6214364;23;20024;-87
2022/05/11 06:59:58;;;;;;;11.38;3.70;;;16.20;99.90;;;;;;6189622;23;20020;-87
2022/05/11 07:02:24;;;;;;;11.10;3.30;;;16.30;99.90;;;;;;6215915;23;20079;-87
2022/05/11 07:04:51;;;;;;;11.18;3.50;;;16.50;99.90;;;;;;6214978;23;20063;-88
2022/05/11 07:07:17;;;;;;;12.82;3.92;;;16.50;99.90;;;;;;6187814;23;20016;-91
2022/05/11 07:09:42;;;;;;;13.25;3.80;;;16.50;99.90;;;;;;6214950;23;20038;-89
2022/05/11 07:12:18;;;;;;;10.15;3.58;;;16.70;99.90;;;;;;6188457;23;20345;-89
2022/05/11 07:14:45;;;;;;;15.27;4.03;;;16.90;99.90;;;;;;6214558;23;20019;-89
2022/05/11 07:17:11;;;;;;;12.73;3.33;;;17.30;99.90;;;;;;6188491;23;20028;-88
2022/05/11 07:19:43;;;;;;;9.02;3.47;;;17.10;99.90;;;;;;6215362;23;20023;-90
2022/05/11 07:22:09;;;;;;;10.00;3.20;;;17.50;99.90;;;;;;6218514;23;20020;-89
2022/05/11 07:24:35;;;;;;;12.30;3.17;;;17.30;99.90;;;;;;6216634;23;20024;-88
2022/05/11 07:27:01;;;;;;;11.68;3.28;;;17.40;99.90;;;;;;6215088;23;20016;-90
2022/05/11 07:29:26;;;;;;;9.35;3.03;;;17.30;99.90;;;;;;6187910;23;20103;-94
2022/05/11 07:31:52;;;;;;;11.23;3.20;;;17.60;99.90;;;;;;6191754;23;20438;-90
2022/05/11 07:34:21;;;;;;;11.48;3.20;;;17.40;99.90;;;;;;6214763;23;20040;-88
2022/05/11 07:36:46;;;;;;;11.32;2.92;;;17.60;99.90;;;;;;6188589;23;20017;-90
2022/05/11 07:39:12;;;;;;;9.93;2.70;;;17.80;99.90;;;;;;6215192;23;20023;-88
2022/05/11 07:41:41;;;;;;;12.10;2.80;;;18.10;99.90;;;;;;6182271;23;20544;-89
2022/05/11 07:44:07;;;;;;;8.48;2.65;;;18.00;99.90;;;;;;6158568;23;20025;-89
2022/05/11 07:47:04;;;;;;;11.52;2.90;;;18.90;99.90;;;;;;6182881;23;20016;-87
2022/05/11 07:49:37;;;;;;;9.50;2.70;;;17.90;99.90;;;;;;6157014;23;20068;-88
2022/05/11 07:52:15;;;;;;;9.27;2.63;;;18.00;99.90;;;;;;6156745;23;20013;-89
2022/05/11 07:54:44;;;;;;;9.15;2.47;;;18.00;99.90;;;;;;6157527;23;20039;-88
2022/05/11 08:00:12;;;;;;;9.10;2.40;;;18.70;99.90;;;;;;6184821;23;20025;-90
2022/05/11 08:02:47;;;;;;;10.07;2.40;;;18.20;99.90;;;;;;6159719;23;20017;-89
2022/05/11 08:05:22;;;;;;;8.27;2.58;;;18.20;99.90;;;;;;6185612;23;20017;-88
2022/05/11 08:08:12;;;;;;;7.80;2.20;;;18.70;99.90;;;;;;6185079;23;20009;-88
2022/05/11 08:10:57;;;;;;;8.90;2.13;;;18.60;99.90;;;;;;6183536;23;20100;-88
2022/05/11 08:13:24;;;;;;;8.55;2.17;;;18.20;99.90;;;;;;6183392;23;20067;-88
2022/05/11 08:16:07;;;;;;;10.05;2.30;;;18.30;99.90;;;;;;6184015;23;20533;-89
2022/05/11 08:18:35;;;;;;;10.23;2.30;;;18.20;99.90;;;;;;6184166;23;20021;-88
2022/05/11 08:21:01;;;;;;;9.82;2.10;;;18.40;99.90;;;;;;6157914;23;20049;-88
2022/05/11 08:23:28;;;;;;;9.52;2.00;;;17.80;99.90;;;;;;6184709;23;20020;-88
2022/05/11 08:25:57;;;;;;;8.20;1.90;;;17.80;99.90;;;;;;6183792;23;20024;-87
2022/05/11 08:28:24;;;;;;;7.30;1.90;;;18.00;99.90;;;;;;6157824;23;20066;-88
2022/05/11 08:33:39;;;;;;;8.20;1.92;;;18.20;99.90;;;;;;6159719;23;20017;-87
2022/05/11 08:36:12;;;;;;;7.95;2.08;;;18.10;99.90;;;;;;6186224;23;20464;-87
2022/05/11 08:38:41;;;;;;;7.85;1.80;;;18.50;99.90;;;;;;6159154;23;20020;-87
2022/05/11 08:41:13;;;;;;;9.65;2.00;;;18.20;99.90;;;;;;6186436;23;20333;-84
2022/05/11 08:43:38;;;;;;;10.35;2.08;;;18.30;99.90;;;;;;6184878;23;20024;-84
2022/05/11 08:46:48;;;;;;;10.18;1.92;;;18.50;99.90;;;;;;6185325;23;20092;-85
2022/05/11 08:49:50;;;;;;;10.90;2.10;;;18.60;99.90;;;;;;6091945;23;20345;-83
2022/05/11 08:52:39;;;;;;;7.47;1.92;;;18.60;99.90;;;;;;6158977;23;20017;-84
2022/05/11 08:55:17;;;;;;;10.07;2.20;;;18.70;99.90;;;;;;6159579;23;20016;-85
2022/05/11 08:57:43;;;;;;;7.78;1.92;;;18.80;99.90;;;;;;6186112;23;20039;-85
2022/05/11 09:00:15;;;;;;;6.57;1.90;;;19.00;99.90;;;;;;6158961;23;20072;-85
2022/05/11 09:03:08;;;;;;;7.13;1.73;;;19.30;99.90;;;;;;6185612;23;20096;-86
2022/05/11 09:05:34;;;;;;;8.00;1.77;;;19.40;99.90;;;;;;6170327;23;20017;-84
2022/05/11 09:08:00;;;;;;;8.02;1.70;;;19.40;99.90;;;;;;6183427;23;20093;-87
2022/05/11 09:10:35;;;;;;;8.50;2.03;;;19.80;99.90;;;;;;6183668;23;20048;-85
2022/05/11 09:13:05;;;;;;;10.45;1.90;;;19.70;99.60;;;;;;6185040;23;20063;-86
2022/05/11 09:15:59;;;;;;;11.90;2.20;;;19.80;99.30;;;;;;6186153;23;20017;-86
2022/05/11 09:18:31;;;;;;;9.70;2.03;;;19.80;98.40;;;;;;6181854;23;20017;-85
2022/05/11 09:21:01;;;;;;;8.15;2.20;;;19.80;98.50;;;;;;6185496;23;20036;-86
2022/05/11 09:23:37;;;;;;;9.23;2.40;;;20.00;99.00;;;;;;6186293;23;20017;-86
2022/05/11 09:26:05;;;;;;;10.95;2.20;;;20.00;98.10;;;;;;6185948;23;20024;-85
2022/05/11 09:28:45;;;;;;;7.00;2.10;;;20.20;98.60;;;;;;6185215;23;20021;-85
2022/05/11 09:31:24;;;;;;;7.28;2.03;;;20.30;98.20;;;;;;6187911;23;20023;-85
2022/05/11 09:34:03;;;;;;;7.82;2.08;;;20.40;97.50;;;;;;6186350;23;20024;-85
2022/05/11 09:36:55;;;;;;;9.18;1.70;;;20.30;97.70;;;;;;6159914;23;20333;-85
2022/05/11 09:39:22;;;;;;;8.95;2.10;;;20.40;97.60;;;;;;6159223;23;20028;-85
2022/05/11 09:41:51;;;;;;;7.70;2.00;;;20.80;97.70;;;;;;6184233;23;20013;-85
2022/05/11 09:44:38;;;;;;;9.32;2.03;;;21.00;97.50;;;;;;6185934;23;20024;-85
2022/05/11 09:47:27;;;;;;;7.25;1.80;;;20.20;96.80;;;;;;6185146;23;20334;-85
2022/05/11 09:49:54;;;;;;;9.18;1.95;;;20.10;96.30;;;;;;6184836;23;20021;-84
2022/05/11 09:52:35;;;;;;;9.43;2.15;;;20.10;96.40;;;;;;6159315;23;20022;-84
2022/05/11 09:55:12;;;;;;;10.45;2.00;;;20.30;96.40;;;;;;6157871;23;20017;-83
2022/05/11 09:57:39;;;;;;;8.45;1.83;;;20.40;95.90;;;;;;6180773;23;20103;-85
2022/05/11 10:00:25;;;;;;;8.13;1.90;;;20.40;95.30;;;;;;6216024;23;20476;-84
2022/05/11 10:02:55;;;;;;;8.30;1.75;;;20.50;95.00;;;;;;6213970;23;20016;-85
2022/05/11 10:05:36;;;;;;;10.93;2.05;;;20.70;94.90;;;;;;6215941;23;20017;-85
2022/05/11 10:08:05;;;;;;;11.60;2.00;;;20.80;94.20;;;;;;6189390;23;20016;-90
2022/05/11 10:10:42;;;;;;;7.50;1.88;;;20.90;94.10;;;;;;6193682;23;20021;-89
2022/05/11 10:13:24;;;;;;;7.85;1.88;;;20.70;93.90;;;;;;6214815;23;20063;-90
2022/05/11 10:24:45;;;;;;;8.98;1.77;;;21.10;93.80;;;;;;6188227;23;20104;-86
2022/05/11 10:27:42;;;;;;;8.05;1.80;;;21.00;93.10;;;;;;6215939;23;20063;-88
2022/05/11 10:30:08;;;;;;;7.72;2.03;;;21.10;93.60;;;;;;6188432;23;20068;-89
2022/05/11 10:33:09;;;;;;;6.70;1.80;;;21.10;93.30;;;;;;6189156;23;20026;-87
2022/05/11 10:36:07;;;;;;;9.35;2.00;;;21.00;92.90;;;;;;6215984;23;20017;-89
2022/05/11 10:38:42;;;;;;;8.20;2.10;;;21.20;92.90;;;;;;6215053;23;20344;-89
2022/05/11 10:41:30;;;;;;;9.80;2.08;;;21.40;93.00;;;;;;6188834;23;20012;-85
2022/05/11 10:44:32;;;;;;;7.70;2.15;;;21.50;92.10;;;;;;6215291;23;20016;-86
2022/05/11 10:47:28;;;;;;;6.53;1.73;;;21.50;92.40;;;;;;6212756;23;20020;-86
2022/05/11 10:49:59;;;;;;;10.50;1.90;;;21.60;91.80;;;;;;6215310;23;20079;-87
2022/05/11 10:53:05;;;;;;;9.63;2.00;;;21.90;92.50;;;;;;6214196;23;20394;-87
2022/05/11 10:55:37;;;;;;;8.25;2.17;;;22.00;91.70;;;;;;6209884;23;20020;-85
2022/05/11 10:58:32;;;;;;;9.60;1.85;;;22.00;92.00;;;;;;6179189;23;20394;-90
2022/05/11 11:01:17;;;;;;;7.20;2.42;;;22.60;91.30;;;;;;6158697;23;20021;-92
2022/05/11 11:04:21;;;;;;;8.30;1.80;;;21.80;91.00;;;;;;6158633;23;20020;-88
2022/05/11 11:07:24;;;;;;;11.95;2.22;;;21.50;90.90;;;;;;6063935;23;20015;-88
2022/05/11 11:10:13;;;;;;;8.15;1.90;;;21.70;91.10;;;;;;6077381;23;20098;-87
2022/05/11 11:13:08;;;;;;;9.10;2.00;;;21.70;91.30;;;;;;6186326;23;20092;-87
2022/05/11 11:15:40;;;;;;;9.98;2.20;;;21.90;91.50;;;;;;6079432;23;20015;-87
2022/05/11 11:18:06;;;;;;;10.55;2.25;;;22.00;91.10;;;;;;6158798;23;20021;-87
2022/05/11 11:20:37;;;;;;;7.75;1.83;;;22.20;91.30;;;;;;6161423;23;20013;-88
2022/05/11 11:23:14;;;;;;;8.10;2.08;;;22.40;91.30;;;;;;6185366;23;20013;-91
2022/05/11 11:25:53;;;;;;;6.93;1.77;;;22.50;90.80;;;;;;6158156;23;20032;-89
2022/05/11 11:28:42;;;;;;;7.55;1.85;;;22.40;90.30;;;;;;6158027;23;20163;-87
2022/05/11 11:31:14;;;;;;;8.00;1.90;;;22.30;90.70;;;;;;6180809;23;20025;-88
2022/05/11 11:34:05;;;;;;;6.32;1.90;;;22.10;90.40;;;;;;6157469;23;20021;-92
2022/05/11 11:36:37;;;;;;;6.93;1.77;;;22.20;90.40;;;;;;6158424;23;20461;-90
2022/05/11 11:39:12;;;;;;;10.32;2.00;;;22.10;90.30;;;;;;6158204;23;20080;-90
2022/05/11 11:41:40;;;;;;;7.88;2.00;;;22.20;89.70;;;;;;6184220;23;20112;-89
2022/05/11 11:44:22;;;;;;;9.90;1.92;;;22.40;90.00;;;;;;6184733;23;20533;-90
2022/05/11 11:46:49;;;;;;;8.52;1.85;;;22.50;90.00;;;;;;6189367;23;20048;-89
2022/05/11 11:49:18;;;;;;;8.10;1.80;;;22.60;90.00;;;;;;6164500;23;20044;-90
2022/05/11 11:51:53;;;;;;;7.90;1.75;;;22.60;89.20;;;;;;6188562;23;20093;-89
2022/05/11 11:54:37;;;;;;;7.13;1.80;;;22.60;88.60;;;;;;6158033;23;20017;-93
2022/05/11 11:57:23;;;;;;;7.55;1.90;;;22.70;89.60;;;;;;6158184;23;20458;-90
2022/05/11 11:59:57;;;;;;;7.25;1.98;;;22.80;89.10;;;;;;6184006;23;20017;-92
2022/05/11 12:02:36;;;;;;;8.90;1.83;;;22.60;89.90;;;;;;6157504;23;20437;-91
2022/05/11 12:05:04;;;;;;;6.75;2.00;;;22.80;89.20;;;;;;6187115;23;20145;-91
2022/05/11 12:17:08;;;;;;;6.75;1.60;;;23.50;88.80;;;;;;6160476;23;20043;-87
2022/05/11 12:19:37;;;;;;;7.10;1.80;;;24.00;89.40;;;;;;6186564;23;20501;-87
2022/05/11 12:22:18;;;;;;;9.35;1.92;;;23.40;88.80;;;;;;6159919;23;20048;-88
2022/05/11 12:25:16;;;;;;;8.77;1.90;;;23.90;87.00;;;;;;6158673;23;20430;-85
2022/05/11 12:27:41;;;;;;;7.25;1.73;;;23.60;87.90;;;;;;6186196;23;20072;-86
2022/05/11 12:30:16;;;;;;;6.05;1.80;;;23.60;87.60;;;;;;6186371;23;20017;-86
2022/05/11 12:32:50;;;;;;;7.63;1.73;;;23.50;86.70;;;;;;6161787;23;20357;-96
2022/05/11 12:35:21;;;;;;;7.50;1.80;;;23.60;86.30;;;;;;6162763;23;20017;-91
2022/05/11 12:38:06;;;;;;;6.45;1.80;;;23.70;87.10;;;;;;6186497;23;20024;-95
2022/05/11 12:40:52;;;;;;;7.88;1.92;;;23.80;86.00;;;;;;6182698;23;20000;-95
2022/05/11 12:43:27;;;;;;;11.55;2.45;;;23.60;85.90;;;;;;6242124;23;20072;-94
2022/05/11 12:45:56;;;;;;;8.18;1.90;;;23.60;85.40;;;;;;6222472;23;20023;-90
2022/05/11 12:48:34;;;;;;;7.00;1.80;;;23.50;85.80;;;;;;6215756;23;20120;-90
2022/05/11 12:51:11;;;;;;;7.07;1.73;;;23.90;85.90;;;;;;6216105;23;20025;-90
2022/05/11 12:53:39;;;;;;;8.32;2.03;;;23.70;85.70;;;;;;6217258;23;20017;-89
2022/05/11 12:56:19;;;;;;;7.82;1.75;;;24.30;86.20;;;;;;6215085;23;20020;-89
2022/05/11 12:58:53;;;;;;;10.50;2.17;;;24.20;86.40;;;;;;6211237;23;20025;-90
2022/05/11 13:01:22;;;;;;;10.10;1.92;;;24.30;85.80;;;;;;6214426;23;20048;-91
2022/05/11 13:07:17;;;;;;;7.95;2.00;;;24.40;84.10;;;;;;6196543;23;20021;-89
2022/05/11 13:10:00;;;;;;;7.85;1.83;;;24.30;85.10;;;;;;6185356;23;20076;-88
2022/05/11 13:12:50;;;;;;;8.07;1.80;;;25.10;83.50;;;;;;6188559;23;20021;-91
2022/05/11 13:15:35;;;;;;;8.90;1.98;;;24.40;83.70;;;;;;6192819;23;20021;-93
2022/05/11 13:18:07;;;;;;;7.68;1.75;;;24.10;82.50;;;;;;6189900;23;20013;-89
2022/05/11 13:20:41;;;;;;;8.47;2.20;;;24.10;84.30;;;;;;6185562;23;20084;-90
2022/05/11 13:23:33;;;;;;;9.02;2.20;;;24.20;83.90;;;;;;6183717;23;20013;-89
2022/05/11 13:26:01;;;;;;;7.70;1.90;;;23.60;83.20;;;;;;6183990;23;20071;-92
2022/05/11 13:28:34;;;;;;;9.65;2.05;;;23.10;83.90;;;;;;6186605;23;20333;-86
2022/05/11 13:31:02;;;;;;;7.30;2.00;;;23.40;83.80;;;;;;6185800;23;20021;-95
2022/05/11 13:33:34;;;;;;;8.90;2.05;;;23.40;84.10;;;;;;6183504;23;20457;-93
2022/05/11 13:36:15;;;;;;;7.38;2.00;;;23.40;83.50;;;;;;6184057;23;20021;-94
2022/05/11 13:38:50;;;;;;;11.02;2.00;;;23.50;83.00;;;;;;6185404;23;20021;-93
2022/05/11 13:41:21;;;;;;;9.13;2.00;;;23.60;83.00;;;;;;6187052;23;20020;-92
2022/05/11 13:43:50;;;;;;;10.77;2.20;;;23.70;82.90;;;;;;6186998;23;20024;-89
2022/05/11 13:48:11;;;;;;;10.80;2.00;;;23.70;83.10;;;;;;6185272;23;20027;-90